createdAt,value
2022-10-12T00:01:34.595Z,83.45
2022-10-12T00:04:01.654Z,83.05
2022-10-12T00:06:29.071Z,79.40
2022-10-12T00:08:56.077Z,84.80
2022-10-12T00:11:25.793Z,82.70
2022-10-12T00:13:53.994Z,83.03
2022-10-12T00:16:22.787Z,81.07
2022-10-12T00:18:54.021Z,82.40
2022-10-12T00:21:21.442Z,82.70
2022-10-12T00:23:48.415Z,86.90
2022-10-12T00:26:23.580Z,90.50
2022-10-12T00:28:57.239Z,89.35
2022-10-12T00:31:24.502Z,74.22
2022-10-12T00:33:51.605Z,77.60
2022-10-12T00:36:28.193Z,76.05
2022-10-12T00:38:56.450Z,73.45
2022-10-12T00:41:27.408Z,72.68
2022-10-12T00:43:58.270Z,72.85
2022-10-12T00:46:39.784Z,76.28
2022-10-12T00:49:23.519Z,75.88
2022-10-12T00:51:58.782Z,68.47
2022-10-12T00:54:33.170Z,67.45
2022-10-12T00:57:02.051Z,76.57
2022-10-12T00:59:39.777Z,73.28
2022-10-12T01:02:06.839Z,67.10
2022-10-12T01:04:33.957Z,70.72
2022-10-12T01:07:01.819Z,76.55
2022-10-12T01:09:29.777Z,71.65
2022-10-12T01:12:00.015Z,72.45
2022-10-12T01:14:27.116Z,75.10
2022-10-12T01:17:30.436Z,69.90
2022-10-12T01:20:15.530Z,68.80
2022-10-12T01:23:12.842Z,70.43
2022-10-12T01:26:01.345Z,63.70
2022-10-12T01:28:49.151Z,70.82
2022-10-12T01:31:37.746Z,69.00
2022-10-12T01:34:18.409Z,69.18
2022-10-12T01:36:49.248Z,67.35
2022-10-12T01:39:25.053Z,67.28
2022-10-12T01:41:57.311Z,69.25
2022-10-12T01:44:26.249Z,66.97
2022-10-12T01:46:55.834Z,71.13
2022-10-12T01:49:30.771Z,63.78
2022-10-12T01:52:21.303Z,69.60
2022-10-12T01:55:06.186Z,62.55
2022-10-12T01:57:54.679Z,66.07
2022-10-12T02:00:21.753Z,66.25
2022-10-12T02:03:14.323Z,64.82
2022-10-12T02:05:47.388Z,61.47
2022-10-12T02:08:28.047Z,72.90
2022-10-12T02:11:10.826Z,61.88
2022-10-12T02:13:47.911Z,62.85
2022-10-12T02:16:20.643Z,74.68
2022-10-12T02:18:52.003Z,67.78
2022-10-12T02:21:27.053Z,66.95
2022-10-12T02:23:57.009Z,69.45
2022-10-12T02:26:24.481Z,67.05
2022-10-12T02:28:52.284Z,66.32
2022-10-12T02:31:33.118Z,67.35
2022-10-12T02:34:28.485Z,65.55
2022-10-12T02:37:01.164Z,72.32
2022-10-12T02:39:38.815Z,71.70
2022-10-12T02:42:14.863Z,70.45
2022-10-12T02:44:43.553Z,70.32
2022-10-12T02:47:12.943Z,68.20
2022-10-12T02:49:42.044Z,66.55
2022-10-12T02:52:09.328Z,68.60
2022-10-12T02:54:37.120Z,70.63
2022-10-12T02:57:04.045Z,70.57
2022-10-12T02:59:31.142Z,69.03
2022-10-12T03:01:58.003Z,78.80
2022-10-12T03:04:24.925Z,69.57
2022-10-12T03:06:51.935Z,74.53
2022-10-12T03:09:18.890Z,72.45
2022-10-12T03:11:45.775Z,69.15
2022-10-12T03:14:15.114Z,72.63
2022-10-12T03:16:42.628Z,67.68
2022-10-12T03:19:09.755Z,67.88
2022-10-12T03:21:36.736Z,71.63
2022-10-12T03:24:03.718Z,69.80
2022-10-12T03:26:30.589Z,72.60
2022-10-12T03:28:57.641Z,71.35
2022-10-12T03:31:24.616Z,75.78
2022-10-12T03:33:51.617Z,71.32
2022-10-12T03:36:18.610Z,76.15
2022-10-12T03:38:45.506Z,76.18
2022-10-12T03:41:12.403Z,71.72
2022-10-12T03:43:39.344Z,75.75
2022-10-12T03:46:06.211Z,75.70
2022-10-12T03:48:33.180Z,71.00
2022-10-12T03:51:00.168Z,73.53
2022-10-12T03:53:27.175Z,72.07
2022-10-12T03:55:54.091Z,77.68
2022-10-12T03:58:21.090Z,74.50
2022-10-12T04:00:47.969Z,76.00
2022-10-12T04:03:14.822Z,71.50
2022-10-12T04:05:41.996Z,72.72
2022-10-12T04:08:09.435Z,70.85
2022-10-12T04:10:36.323Z,68.55
2022-10-12T04:13:03.340Z,69.32
2022-10-12T04:15:30.212Z,72.35
2022-10-12T04:17:57.128Z,67.22
2022-10-12T04:20:24.058Z,74.45
2022-10-12T04:22:50.936Z,71.25
2022-10-12T04:25:17.946Z,74.18
2022-10-12T04:27:44.882Z,69.07
2022-10-12T04:30:12.470Z,68.15
2022-10-12T04:32:39.382Z,72.65
2022-10-12T04:35:06.496Z,67.40
2022-10-12T04:37:33.362Z,73.10
2022-10-12T04:40:00.240Z,72.22
2022-10-12T04:42:27.169Z,65.22
2022-10-12T04:44:54.114Z,65.00
2022-10-12T04:47:21.193Z,68.93
2022-10-12T04:49:48.125Z,74.47
2022-10-12T04:52:14.978Z,72.32
2022-10-12T04:54:41.894Z,68.90
2022-10-12T04:57:08.976Z,78.32
2022-10-12T04:59:35.942Z,74.80
2022-10-12T05:02:02.842Z,80.00
2022-10-12T05:04:29.840Z,65.57
2022-10-12T05:06:56.815Z,87.68
2022-10-12T05:09:23.679Z,77.47
2022-10-12T05:11:50.659Z,72.13
2022-10-12T05:14:17.690Z,77.05
2022-10-12T05:16:44.588Z,84.32
2022-10-12T05:19:11.540Z,84.32
2022-10-12T05:21:40.361Z,71.63
2022-10-12T05:24:07.660Z,63.42
2022-10-12T05:26:34.796Z,73.38
2022-10-12T05:29:01.766Z,71.90
2022-10-12T05:31:28.714Z,68.10
2022-10-12T05:33:55.649Z,76.72
2022-10-12T05:36:22.608Z,77.00
2022-10-12T05:38:49.516Z,81.38
2022-10-12T05:41:16.549Z,78.63
2022-10-12T05:43:43.490Z,77.00
2022-10-12T05:46:14.262Z,88.13
2022-10-12T05:48:42.041Z,66.93
2022-10-12T05:51:08.981Z,67.00
2022-10-12T05:53:35.965Z,66.50
2022-10-12T05:56:02.912Z,65.43
2022-10-12T05:58:30.897Z,74.57
2022-10-12T06:01:27.248Z,70.40
2022-10-12T06:03:54.895Z,107.30
2022-10-12T06:06:22.493Z,78.88
2022-10-12T06:08:49.479Z,66.97
2022-10-12T06:11:16.405Z,67.88
2022-10-12T06:13:43.260Z,70.45
2022-10-12T06:16:10.163Z,64.95
2022-10-12T06:18:37.076Z,67.22
2022-10-12T06:23:50.937Z,67.97
2022-10-12T06:26:17.830Z,70.68
2022-10-12T06:28:44.955Z,76.57
2022-10-12T06:31:11.946Z,78.60
2022-10-12T06:33:38.864Z,72.13
2022-10-12T06:36:05.932Z,69.63
2022-10-12T06:38:32.926Z,71.07
2022-10-12T06:40:59.813Z,68.93
2022-10-12T06:43:26.748Z,67.95
2022-10-12T06:45:54.152Z,90.75
2022-10-12T06:48:21.034Z,69.25
2022-10-12T06:50:48.315Z,75.28
2022-10-12T06:53:15.317Z,68.82
2022-10-12T06:55:42.292Z,72.00
2022-10-12T06:58:09.273Z,68.95
2022-10-12T07:00:36.584Z,65.55
2022-10-12T07:03:04.002Z,71.68
2022-10-12T07:05:31.380Z,68.35
2022-10-12T07:07:58.405Z,83.18
2022-10-12T07:10:25.549Z,65.78
2022-10-12T07:12:52.539Z,68.30
2022-10-12T07:15:19.527Z,82.40
2022-10-12T07:17:46.494Z,81.15
2022-10-12T07:20:13.440Z,69.70
2022-10-12T07:22:40.443Z,89.50
2022-10-12T07:25:07.777Z,96.13
2022-10-12T07:27:34.654Z,108.80
2022-10-12T07:30:01.985Z,109.80
2022-10-12T07:32:28.866Z,94.03
2022-10-12T07:34:55.753Z,95.97
2022-10-12T07:37:22.710Z,105.60
2022-10-12T07:39:49.911Z,107.45
2022-10-12T07:42:19.248Z,133.77
2022-10-12T07:44:46.689Z,183.30
2022-10-12T07:47:13.643Z,162.93
2022-10-12T07:49:40.518Z,134.90
2022-10-12T07:52:07.491Z,128.88
2022-10-12T07:54:34.399Z,136.35
2022-10-12T07:57:01.387Z,136.85
2022-10-12T07:59:28.446Z,103.78
2022-10-12T08:01:55.443Z,93.28
2022-10-12T08:04:22.366Z,96.93
2022-10-12T08:06:49.294Z,114.03
2022-10-12T08:09:16.224Z,94.82
2022-10-12T08:11:43.300Z,84.97
2022-10-12T08:14:17.957Z,78.55
2022-10-12T08:16:45.583Z,80.38
2022-10-12T08:19:12.565Z,89.10
2022-10-12T08:21:39.868Z,102.43
2022-10-12T08:24:07.137Z,100.25
2022-10-12T08:26:34.063Z,99.43
2022-10-12T08:29:03.212Z,104.88
2022-10-12T08:31:30.372Z,92.78
2022-10-12T08:33:58.478Z,75.47
2022-10-12T08:36:27.557Z,78.15
2022-10-12T08:38:55.650Z,83.03
2022-10-12T08:41:53.197Z,74.85
2022-10-12T08:44:38.712Z,69.85
2022-10-12T08:47:16.866Z,61.95
2022-10-12T08:49:49.733Z,72.80
2022-10-12T08:52:41.632Z,58.03
2022-10-12T08:55:25.169Z,66.30
2022-10-12T08:57:52.154Z,67.18
2022-10-12T09:00:19.559Z,63.60
2022-10-12T09:03:29.652Z,57.95
2022-10-12T09:06:15.799Z,64.38
2022-10-12T09:09:03.147Z,52.45
2022-10-12T09:11:36.124Z,44.55
2022-10-12T09:14:06.539Z,45.63
2022-10-12T09:16:40.409Z,57.88
2022-10-12T09:19:21.421Z,45.40
2022-10-12T09:21:49.992Z,52.30
2022-10-12T09:24:39.357Z,49.22
2022-10-12T09:27:20.275Z,50.00
2022-10-12T09:29:55.245Z,54.67
2022-10-12T09:32:40.004Z,54.97
2022-10-12T09:35:08.334Z,49.10
2022-10-12T09:37:36.440Z,48.33
2022-10-12T09:40:03.695Z,52.63
2022-10-12T09:42:31.695Z,51.10
2022-10-12T09:45:02.815Z,51.60
2022-10-12T09:47:33.966Z,48.38
2022-10-12T09:50:06.226Z,44.70
2022-10-12T09:52:36.273Z,42.17
2022-10-12T09:55:11.394Z,47.55
2022-10-12T09:57:41.705Z,45.13
2022-10-12T10:00:29.352Z,52.50
2022-10-12T10:02:57.166Z,40.42
2022-10-12T10:05:31.511Z,43.25
2022-10-12T10:08:15.336Z,46.78
2022-10-12T10:10:56.044Z,47.83
2022-10-12T10:13:31.813Z,50.35
2022-10-12T10:16:10.269Z,36.60
2022-10-12T10:18:48.647Z,40.40
2022-10-12T10:21:29.664Z,45.97
2022-10-12T10:24:02.576Z,47.53
2022-10-12T10:26:51.181Z,47.13
2022-10-12T10:29:37.992Z,45.70
2022-10-12T10:32:37.336Z,42.00
2022-10-12T10:35:20.354Z,47.08
2022-10-12T10:37:55.776Z,43.05
2022-10-12T10:40:31.039Z,35.85
2022-10-12T10:43:05.910Z,48.25
2022-10-12T10:46:04.766Z,41.78
2022-10-12T10:48:53.448Z,47.38
2022-10-12T10:51:20.644Z,38.88
2022-10-12T10:53:49.837Z,42.70
2022-10-12T10:56:31.219Z,41.15
2022-10-12T10:59:09.819Z,39.78
2022-10-12T11:01:43.386Z,41.63
2022-10-12T11:04:17.675Z,39.20
2022-10-12T11:07:12.788Z,37.42
2022-10-12T11:09:45.983Z,39.28
2022-10-12T11:12:21.468Z,37.58
2022-10-12T11:14:57.533Z,36.35
2022-10-12T11:17:30.748Z,37.17
2022-10-12T11:20:21.383Z,36.72
2022-10-12T11:22:58.038Z,35.25
2022-10-12T11:25:49.188Z,38.35
2022-10-12T11:28:17.218Z,39.47
2022-10-12T11:30:51.123Z,43.97
2022-10-12T11:33:40.597Z,43.88
2022-10-12T11:36:11.317Z,42.95
2022-10-12T11:39:07.871Z,37.47
2022-10-12T11:41:44.964Z,37.00
2022-10-12T11:44:39.034Z,38.95
2022-10-12T11:47:16.554Z,39.97
2022-10-12T11:49:46.426Z,43.28
2022-10-12T11:52:13.555Z,42.80
2022-10-12T11:54:51.723Z,43.55
2022-10-12T11:57:32.908Z,47.35
2022-10-12T12:00:07.510Z,41.17
2022-10-12T12:02:41.391Z,42.60
2022-10-12T12:05:16.920Z,40.78
2022-10-12T12:07:56.841Z,42.28
2022-10-12T12:10:27.862Z,39.22
2022-10-12T12:13:18.283Z,42.75
2022-10-12T12:15:49.732Z,43.75
2022-10-12T12:18:24.820Z,39.67
2022-10-12T12:21:10.511Z,50.05
2022-10-12T12:23:50.287Z,41.33
2022-10-12T12:26:19.365Z,46.97
2022-10-12T12:28:51.550Z,43.45
2022-10-12T12:31:24.602Z,43.95
2022-10-12T12:34:06.314Z,45.67
2022-10-12T12:36:37.041Z,47.10
2022-10-12T12:39:07.011Z,41.17
2022-10-12T12:41:56.392Z,47.05
2022-10-12T12:44:46.415Z,39.13
2022-10-12T12:50:02.677Z,38.90
2022-10-12T12:52:39.891Z,37.38
2022-10-12T12:55:40.994Z,38.55
2022-10-12T12:58:19.099Z,37.33
2022-10-12T13:01:04.233Z,36.15
2022-10-12T13:03:43.295Z,37.30
2022-10-12T13:06:40.924Z,39.17
2022-10-12T13:09:40.774Z,39.83
2022-10-12T13:12:14.081Z,36.85
2022-10-12T13:15:19.062Z,43.72
2022-10-12T13:18:28.382Z,39.17
2022-10-12T13:21:01.222Z,35.85
2022-10-12T13:23:28.823Z,40.45
2022-10-12T13:26:06.586Z,36.03
2022-10-12T13:28:39.815Z,38.50
2022-10-12T13:31:31.152Z,35.65
2022-10-12T13:33:57.975Z,39.63
2022-10-12T13:36:29.160Z,36.72
2022-10-12T13:39:07.453Z,45.00
2022-10-12T13:41:35.520Z,43.05
2022-10-12T13:44:06.001Z,42.75
2022-10-12T13:46:42.600Z,41.72
2022-10-12T13:49:26.521Z,44.25
2022-10-12T13:51:57.768Z,42.80
2022-10-12T13:54:28.453Z,42.03
2022-10-12T13:57:05.127Z,49.75
2022-10-12T13:59:38.075Z,44.45
2022-10-12T14:02:23.120Z,43.60
2022-10-12T14:04:54.858Z,41.85
2022-10-12T14:07:31.821Z,41.50
2022-10-12T14:10:06.042Z,44.92
2022-10-12T14:12:36.413Z,40.55
2022-10-12T14:15:05.443Z,42.50
2022-10-12T14:17:32.526Z,33.50
2022-10-12T14:20:39.021Z,46.05
2022-10-12T14:23:21.460Z,43.97
2022-10-12T14:25:57.193Z,44.50
2022-10-12T14:28:35.583Z,39.33
2022-10-12T14:31:02.958Z,45.53
2022-10-12T14:33:31.407Z,50.97
2022-10-12T14:36:25.910Z,39.20
2022-10-12T14:38:53.696Z,40.53
2022-10-12T14:41:43.353Z,42.15
2022-10-12T14:44:11.114Z,39.60
2022-10-12T14:47:07.308Z,41.38
2022-10-12T14:49:41.542Z,40.20
2022-10-12T14:52:36.359Z,45.08
2022-10-12T14:55:04.529Z,38.33
2022-10-12T14:57:32.654Z,38.30
2022-10-12T14:59:59.831Z,45.58
2022-10-12T15:02:29.587Z,45.17
2022-10-12T15:04:57.227Z,39.25
2022-10-12T15:07:30.971Z,44.28
2022-10-12T15:09:58.194Z,47.90
2022-10-12T15:12:26.774Z,41.63
2022-10-12T15:14:59.917Z,47.05
2022-10-12T15:17:27.210Z,45.17
2022-10-12T15:19:54.484Z,54.72
2022-10-12T15:22:24.517Z,68.43
2022-10-12T15:24:53.499Z,66.72
2022-10-12T15:27:20.634Z,71.00
2022-10-12T15:29:48.329Z,71.65
2022-10-12T15:32:17.787Z,60.78
2022-10-12T15:34:45.377Z,56.45
2022-10-12T15:37:12.895Z,54.25
2022-10-12T15:39:40.061Z,54.33
2022-10-12T15:42:07.196Z,46.70
2022-10-12T15:44:41.143Z,47.90
2022-10-12T15:47:10.697Z,52.85
2022-10-12T15:49:38.209Z,50.40
2022-10-12T15:52:10.647Z,51.42
2022-10-12T15:54:38.114Z,44.67
2022-10-12T15:57:07.119Z,47.88
2022-10-12T15:59:34.246Z,42.47
2022-10-12T16:02:01.416Z,40.60
2022-10-12T16:04:28.358Z,47.33
2022-10-12T16:06:55.490Z,46.90
2022-10-12T16:09:22.934Z,50.40
2022-10-12T16:11:50.276Z,47.25
2022-10-12T16:14:17.427Z,57.38
2022-10-12T16:16:44.373Z,52.03
2022-10-12T16:19:11.370Z,66.05
2022-10-12T16:21:38.430Z,49.13
2022-10-12T16:24:05.752Z,50.15
2022-10-12T16:26:32.660Z,54.40
2022-10-12T16:29:00.232Z,51.33
2022-10-12T16:31:27.190Z,55.85
2022-10-12T16:33:54.371Z,53.65
2022-10-12T16:36:21.426Z,51.38
2022-10-12T16:38:48.727Z,54.03
2022-10-12T16:41:17.000Z,51.00
2022-10-12T16:43:44.496Z,53.63
2022-10-12T16:46:11.481Z,59.08
2022-10-12T16:48:38.750Z,60.03
2022-10-12T16:51:10.095Z,51.50
2022-10-12T16:53:37.424Z,56.50
2022-10-12T16:56:05.197Z,54.17
2022-10-12T16:58:32.299Z,53.22
2022-10-12T17:00:59.297Z,50.22
2022-10-12T17:03:26.304Z,53.97
2022-10-12T17:06:00.502Z,55.38
2022-10-12T17:08:27.487Z,54.60
2022-10-12T17:10:55.408Z,53.83
2022-10-12T17:13:22.371Z,52.38
2022-10-12T17:15:49.305Z,52.22
2022-10-12T17:18:16.278Z,58.78
2022-10-12T17:20:43.212Z,56.13
2022-10-12T17:23:10.081Z,53.10
2022-10-12T17:25:36.967Z,55.95
2022-10-12T17:28:04.449Z,50.08
2022-10-12T17:30:31.536Z,47.83
2022-10-12T17:32:58.485Z,56.05
2022-10-12T17:35:25.405Z,51.42
2022-10-12T17:37:52.302Z,53.40
2022-10-12T17:40:19.518Z,53.97
2022-10-12T17:42:46.641Z,56.45
2022-10-12T17:45:13.840Z,54.53
2022-10-12T17:47:41.074Z,57.10
2022-10-12T17:50:08.576Z,62.67
2022-10-12T17:52:39.634Z,57.42
2022-10-12T17:55:09.422Z,59.72
2022-10-12T17:57:42.294Z,66.20
2022-10-12T18:00:09.969Z,60.85
2022-10-12T18:02:36.875Z,59.85
2022-10-12T18:05:04.305Z,62.15
2022-10-12T18:07:31.523Z,60.50
2022-10-12T18:12:30.476Z,58.40
2022-10-12T18:14:57.754Z,59.88
2022-10-12T18:17:25.583Z,55.13
2022-10-12T18:19:52.855Z,60.13
2022-10-12T18:22:20.156Z,74.13
2022-10-12T18:24:48.991Z,60.95
2022-10-12T18:27:16.036Z,64.00
2022-10-12T18:29:43.228Z,67.95
2022-10-12T18:32:10.367Z,73.80
2022-10-12T18:34:40.770Z,78.57
2022-10-12T18:37:08.143Z,89.65
2022-10-12T18:39:35.120Z,84.82
2022-10-12T18:42:02.050Z,86.07
2022-10-12T18:44:28.970Z,88.97
2022-10-12T18:46:55.933Z,85.57
2022-10-12T18:49:23.414Z,75.03
2022-10-12T18:51:52.272Z,69.78
2022-10-12T18:54:19.451Z,77.03
2022-10-12T18:56:46.493Z,73.75
2022-10-12T18:59:17.528Z,84.60
2022-10-12T19:01:45.635Z,86.75
2022-10-12T19:04:13.348Z,82.95
2022-10-12T19:06:42.794Z,84.00
2022-10-12T19:09:13.309Z,82.22
2022-10-12T19:11:40.663Z,81.50
2022-10-12T19:14:10.726Z,78.28
2022-10-12T19:16:37.644Z,78.97
2022-10-12T19:19:14.817Z,83.28
2022-10-12T19:21:45.275Z,80.15
2022-10-12T19:24:14.278Z,85.15
2022-10-12T19:26:42.500Z,85.32
2022-10-12T19:29:09.426Z,79.85
2022-10-12T19:31:40.214Z,73.85
2022-10-12T19:34:09.582Z,77.07
2022-10-12T19:36:37.736Z,78.63
2022-10-12T19:39:08.628Z,76.10
2022-10-12T19:41:36.054Z,72.82
2022-10-12T19:44:03.970Z,80.28
2022-10-12T19:46:31.339Z,76.43
2022-10-12T19:48:59.563Z,80.57
2022-10-12T19:51:29.042Z,77.75
2022-10-12T19:53:57.948Z,78.68
2022-10-12T19:56:27.986Z,77.93
2022-10-12T19:58:57.236Z,74.80
2022-10-12T20:01:30.521Z,76.93
2022-10-12T20:03:57.505Z,79.13
2022-10-12T20:06:28.726Z,76.28
2022-10-12T20:08:57.941Z,74.95
2022-10-12T20:11:25.186Z,82.40
2022-10-12T20:13:52.585Z,81.65
2022-10-12T20:16:20.494Z,81.57
2022-10-12T20:18:47.539Z,77.50
2022-10-12T20:21:19.281Z,81.18
2022-10-12T20:23:47.324Z,77.15
2022-10-12T20:26:19.335Z,73.50
2022-10-12T20:28:49.650Z,72.70
2022-10-12T20:31:18.735Z,67.97
2022-10-12T20:33:49.371Z,66.25
2022-10-12T20:36:23.066Z,70.57
2022-10-12T20:38:50.323Z,68.05
2022-10-12T20:41:17.909Z,73.10
2022-10-12T20:43:45.373Z,73.32
2022-10-12T20:46:14.759Z,74.35
2022-10-12T20:48:44.540Z,62.85
2022-10-12T20:51:28.845Z,69.55
2022-10-12T20:53:59.165Z,78.07
2022-10-12T20:56:27.666Z,66.95
2022-10-12T20:58:57.748Z,73.97
2022-10-12T21:01:26.156Z,76.90
2022-10-12T21:03:54.248Z,75.90
2022-10-12T21:06:23.527Z,79.55
2022-10-12T21:08:52.285Z,77.35
2022-10-12T21:11:19.268Z,87.28
2022-10-12T21:13:46.948Z,97.47
2022-10-12T21:16:14.649Z,91.07
2022-10-12T21:18:42.827Z,83.78
2022-10-12T21:21:18.859Z,78.97
2022-10-12T21:23:58.411Z,88.43
2022-10-12T21:26:27.750Z,89.82
2022-10-12T21:28:54.983Z,80.68
2022-10-12T21:31:22.600Z,83.93
2022-10-12T21:33:49.547Z,84.90
2022-10-12T21:36:22.171Z,86.80
2022-10-12T21:38:50.388Z,88.53
2022-10-12T21:41:20.897Z,86.78
2022-10-12T21:43:49.222Z,84.50
2022-10-12T21:46:18.774Z,76.55
2022-10-12T21:48:46.300Z,78.22
2022-10-12T21:51:13.679Z,82.43
2022-10-12T21:53:41.288Z,84.55
2022-10-12T21:56:29.548Z,79.25
2022-10-12T21:58:58.153Z,75.75
2022-10-12T22:01:34.826Z,68.97
2022-10-12T22:04:04.435Z,67.50
2022-10-12T22:06:32.565Z,67.75
2022-10-12T22:09:05.075Z,67.55
2022-10-12T22:11:33.422Z,66.15
2022-10-12T22:14:03.132Z,66.40
2022-10-12T22:16:30.427Z,64.05
2022-10-12T22:19:02.358Z,68.50
2022-10-12T22:21:30.723Z,64.63
2022-10-12T22:23:58.480Z,68.47
2022-10-12T22:26:25.526Z,66.53
2022-10-12T22:28:52.464Z,67.88
2022-10-12T22:31:21.067Z,66.90
2022-10-12T22:33:48.096Z,62.63
2022-10-12T22:36:15.325Z,62.58
2022-10-12T22:38:43.158Z,66.85
2022-10-12T22:41:15.846Z,62.45
2022-10-12T22:43:42.806Z,65.28
2022-10-12T22:46:10.215Z,70.65
2022-10-12T22:48:37.746Z,66.22
2022-10-12T22:51:06.477Z,62.75
2022-10-12T22:53:33.782Z,66.68
2022-10-12T22:56:06.684Z,67.22
2022-10-12T23:01:06.553Z,67.28
2022-10-12T23:03:34.415Z,59.33
2022-10-12T23:06:01.544Z,67.15
2022-10-12T23:08:29.201Z,60.03
2022-10-12T23:11:01.656Z,63.15
2022-10-12T23:13:28.551Z,62.40
2022-10-12T23:15:55.434Z,66.03
2022-10-12T23:18:22.372Z,55.55
2022-10-12T23:20:49.271Z,57.25
2022-10-12T23:23:16.163Z,60.45
2022-10-12T23:25:43.067Z,64.63
2022-10-12T23:28:09.961Z,57.05
2022-10-12T23:30:38.359Z,63.70
2022-10-12T23:33:05.270Z,66.13
2022-10-12T23:35:32.415Z,63.47
2022-10-12T23:37:59.292Z,59.35
2022-10-12T23:40:26.201Z,57.67
2022-10-12T23:42:53.062Z,61.58
2022-10-12T23:45:19.947Z,58.45
2022-10-12T23:47:46.871Z,63.40
2022-10-12T23:50:13.723Z,61.80
2022-10-12T23:52:40.583Z,62.25
2022-10-12T23:55:08.018Z,58.65
2022-10-12T23:57:46.838Z,59.78
